HESH/SSH METAR and TAF weather

Enter ICAO airport designator
Station Type Date Time Source
HESH METAR 2018/07/19 06:00 UTC NOAA

HESH 190600Z 01013KT CAVOK 32/18 Q1005 NOSIG


Station Type Date Time Source
HESH Decoded METAR 2018/07/19 06:00 UTC NOAA

Sharm El Sheikhintl, Egypt (HESH) 27-58N 034-23E
Jul 19, 2018 - 02:00 AM EDT / 2018.07.19 0600 UTC
Wind: from the N (010 degrees) at 15 MPH (13 KT):0
Visibility: greater than 7 mile(s):0
Temperature: 89 F (32 C)
Dew Point: 64 F (18 C)
Relative Humidity: 43%
Pressure (altimeter): 29.68 in. Hg (1005 hPa)
ob: HESH 190600Z 01013KT CAVOK 32/18 Q1005 NOSIG
cycle: 6

Station Type Date Time Source
HESH TAF 2018/07/19 06:59 UTC NOAA

TAF HESH 190500Z 1906/2012 02012KT CAVOK
BECMG 1909/1911 18009KT
BECMG 1918/1920 32011KT


Example: see airport list